Tupa, Brazil
Current Conditions -  °F | °C
As of 6:00 PM on Friday 19 Dec 2014 (Local Time) from SBDN Reporting Station
Few Clouds Few Clouds  
Wind Chill: 91°   Ceiling: Unl
Heat Index: 93°   Visibility: 6mi
Dew Point: 64°   Wind: 5mph
Humidity: 41%   Direction: 310°NW
Pressure: 29.71"   Gusts: NA
Location:  21.93°S, 50.52°W
Report Text: SBDN 192000Z 31004KT 9999 FEW045 FEW050TCU 33/18 Q1006
Loading
Personal Weather Stations






























Interactive Weather Map New forecast layout! Learn more

10-Day Weather Forecast

Advertisements
Track Severe Weather on mobile